createdAt,value
2022-10-17T00:00:07.213Z,64.32
2022-10-17T00:02:33.804Z,66.80
2022-10-17T00:05:00.413Z,68.26
2022-10-17T00:07:27.178Z,67.34
2022-10-17T00:09:54.176Z,66.35
2022-10-17T00:12:20.777Z,67.84
2022-10-17T00:14:47.370Z,66.82
2022-10-17T00:17:13.956Z,66.62
2022-10-17T00:19:40.538Z,65.66
2022-10-17T00:22:07.170Z,68.71
2022-10-17T00:24:33.759Z,66.80
2022-10-17T00:27:00.426Z,65.24
2022-10-17T00:29:27.071Z,66.99
2022-10-17T00:31:57.561Z,68.08
2022-10-17T00:34:25.294Z,68.38
2022-10-17T00:36:53.229Z,68.04
2022-10-17T00:39:20.056Z,67.91
2022-10-17T00:41:46.689Z,67.46
2022-10-17T00:44:31.437Z,66.65
2022-10-17T00:47:04.522Z,66.85
2022-10-17T00:49:35.985Z,68.15
2022-10-17T00:52:08.409Z,69.18
2022-10-17T00:54:41.011Z,67.44
2022-10-17T00:57:07.776Z,67.54
2022-10-17T00:59:37.862Z,67.39
2022-10-17T01:02:08.722Z,68.62
2022-10-17T01:04:42.411Z,67.88
2022-10-17T01:07:09.760Z,70.30
2022-10-17T01:09:37.549Z,68.83
2022-10-17T01:12:08.455Z,68.58
2022-10-17T01:14:53.942Z,65.43
2022-10-17T01:17:23.576Z,66.03
2022-10-17T01:20:21.116Z,66.25
2022-10-17T01:23:17.213Z,66.48
2022-10-17T01:25:56.897Z,68.56
2022-10-17T01:29:10.659Z,68.72
2022-10-17T01:31:46.571Z,67.65
2022-10-17T01:34:32.898Z,68.36
2022-10-17T01:37:14.924Z,67.31
2022-10-17T01:39:52.606Z,65.18
2022-10-17T01:42:33.480Z,64.91
2022-10-17T01:45:23.812Z,63.79
2022-10-17T01:47:54.337Z,63.81
2022-10-17T01:50:36.463Z,62.92
2022-10-17T01:53:12.370Z,64.08
2022-10-17T01:55:43.100Z,62.74
2022-10-17T01:58:24.492Z,64.72
2022-10-17T02:00:55.046Z,63.82
2022-10-17T02:03:24.293Z,64.71
2022-10-17T02:05:52.290Z,64.50
2022-10-17T02:08:27.815Z,64.91
2022-10-17T02:11:01.720Z,65.02
2022-10-17T02:13:54.932Z,64.32
2022-10-17T02:16:38.388Z,65.64
2022-10-17T02:19:23.787Z,67.39
2022-10-17T02:22:04.707Z,70.11
2022-10-17T02:25:09.125Z,71.32
2022-10-17T02:27:56.572Z,72.21
2022-10-17T02:30:51.942Z,71.09
2022-10-17T02:33:41.677Z,70.39
2022-10-17T02:36:18.956Z,69.93
2022-10-17T02:38:47.116Z,69.00
2022-10-17T02:41:17.991Z,68.89
2022-10-17T02:43:49.761Z,66.90
2022-10-17T02:46:21.406Z,65.54
2022-10-17T02:49:08.398Z,65.34
2022-10-17T02:51:40.972Z,64.80
2022-10-17T02:54:32.429Z,65.90
2022-10-17T02:57:13.568Z,65.66
2022-10-17T02:59:43.551Z,62.92
2022-10-17T03:02:10.129Z,63.35
2022-10-17T03:04:37.822Z,66.41
2022-10-17T03:07:04.465Z,68.13
2022-10-17T03:09:31.126Z,68.20
2022-10-17T03:11:57.736Z,69.55
2022-10-17T03:14:24.351Z,69.90
2022-10-17T03:16:50.946Z,68.50
2022-10-17T03:19:17.552Z,69.82
2022-10-17T03:21:44.160Z,70.29
2022-10-17T03:24:10.732Z,68.88
2022-10-17T03:26:37.521Z,67.06
2022-10-17T03:29:04.381Z,66.61
2022-10-17T03:31:31.537Z,65.77
2022-10-17T03:33:58.623Z,68.50
2022-10-17T03:36:26.206Z,69.28
2022-10-17T03:38:55.916Z,67.54
2022-10-17T03:41:22.652Z,65.91
2022-10-17T03:43:49.288Z,67.24
2022-10-17T03:46:16.015Z,67.98
2022-10-17T03:48:42.586Z,68.40
2022-10-17T03:51:10.088Z,66.28
2022-10-17T03:53:36.736Z,63.83
2022-10-17T03:56:29.716Z,64.27
2022-10-17T03:58:56.427Z,63.06
2022-10-17T04:01:23.627Z,62.34
2022-10-17T04:03:52.178Z,62.17
2022-10-17T04:06:20.391Z,62.02
2022-10-17T04:08:47.014Z,65.20
2022-10-17T04:11:17.519Z,66.42
2022-10-17T04:13:45.001Z,63.47
2022-10-17T04:16:15.082Z,63.25
2022-10-17T04:18:42.884Z,63.78
2022-10-17T04:21:10.599Z,64.81
2022-10-17T04:23:37.323Z,65.09
2022-10-17T04:26:05.596Z,64.93
2022-10-17T04:28:33.284Z,65.48
2022-10-17T04:31:09.698Z,67.70
2022-10-17T04:33:36.301Z,69.30
2022-10-17T04:36:06.286Z,67.79
2022-10-17T04:38:34.376Z,67.40
2022-10-17T04:41:03.424Z,66.77
2022-10-17T04:43:31.492Z,66.52
2022-10-17T04:45:59.354Z,66.59
2022-10-17T04:48:25.921Z,68.28
2022-10-17T04:51:05.230Z,68.26
2022-10-17T04:53:34.130Z,68.57
2022-10-17T04:56:01.216Z,68.53
2022-10-17T04:58:30.839Z,67.04
2022-10-17T05:00:57.494Z,65.97
2022-10-17T05:03:24.484Z,64.53
2022-10-17T05:05:51.258Z,64.39
2022-10-17T05:08:18.126Z,66.43
2022-10-17T05:10:45.513Z,66.83
2022-10-17T05:13:12.817Z,64.78
2022-10-17T05:15:39.936Z,64.21
2022-10-17T05:18:07.440Z,64.90
2022-10-17T05:20:34.119Z,67.90
2022-10-17T05:23:01.343Z,67.95
2022-10-17T05:25:28.179Z,67.31
2022-10-17T05:27:54.877Z,67.67
2022-10-17T05:30:22.174Z,66.25
2022-10-17T05:32:52.695Z,64.96
2022-10-17T05:35:19.354Z,65.32
2022-10-17T05:37:45.994Z,66.60
2022-10-17T05:40:12.732Z,67.03
2022-10-17T05:45:07.444Z,70.49
2022-10-17T05:47:34.052Z,70.06
2022-10-17T05:50:00.652Z,69.96
2022-10-17T05:52:27.500Z,68.98
2022-10-17T05:54:54.408Z,66.81
2022-10-17T05:57:21.196Z,69.06
2022-10-17T05:59:47.777Z,67.97
2022-10-17T06:02:14.537Z,67.58
2022-10-17T06:04:41.224Z,65.12
2022-10-17T06:07:07.814Z,64.18
2022-10-17T06:09:34.903Z,62.86
2022-10-17T06:12:01.900Z,62.70
2022-10-17T06:14:28.703Z,63.88
2022-10-17T06:16:55.325Z,62.92
2022-10-17T06:19:22.100Z,64.28
2022-10-17T06:21:48.866Z,64.15
2022-10-17T06:24:15.564Z,65.25
2022-10-17T06:26:42.477Z,66.88
2022-10-17T06:29:09.364Z,66.39
2022-10-17T06:31:36.105Z,64.42
2022-10-17T06:34:02.731Z,63.52
2022-10-17T06:36:30.187Z,65.24
2022-10-17T06:38:56.838Z,64.73
2022-10-17T06:41:23.474Z,65.19
2022-10-17T06:43:50.080Z,63.16
2022-10-17T06:46:19.090Z,65.51
2022-10-17T06:48:46.125Z,65.36
2022-10-17T06:51:13.257Z,63.57
2022-10-17T06:53:40.946Z,65.14
2022-10-17T06:56:09.428Z,63.69
2022-10-17T06:58:40.162Z,63.15
2022-10-17T07:01:10.144Z,62.16
2022-10-17T07:03:37.488Z,61.72
2022-10-17T07:06:05.303Z,61.58
2022-10-17T07:08:32.193Z,62.80
2022-10-17T07:10:59.002Z,61.73
2022-10-17T07:13:25.682Z,62.25
2022-10-17T07:15:52.328Z,61.88
2022-10-17T07:18:18.991Z,61.87
2022-10-17T07:20:53.290Z,62.11
2022-10-17T07:23:19.857Z,62.48
2022-10-17T07:25:46.502Z,61.45
2022-10-17T07:28:15.094Z,59.87
2022-10-17T07:30:42.004Z,59.70
2022-10-17T07:33:08.591Z,58.68
2022-10-17T07:35:35.193Z,58.20
2022-10-17T07:38:03.913Z,58.36
2022-10-17T07:40:30.686Z,57.22
2022-10-17T07:42:57.299Z,56.63
2022-10-17T07:45:24.164Z,57.36
2022-10-17T07:47:50.920Z,57.09
2022-10-17T07:50:17.562Z,55.79
2022-10-17T07:52:44.137Z,55.25
2022-10-17T07:55:10.719Z,54.82
2022-10-17T07:57:37.298Z,53.39
2022-10-17T08:00:04.227Z,52.71
2022-10-17T08:02:31.733Z,52.26
2022-10-17T08:04:58.602Z,52.59
2022-10-17T08:07:28.512Z,51.88
2022-10-17T08:09:56.416Z,53.21
2022-10-17T08:12:23.077Z,51.98
2022-10-17T08:14:49.656Z,51.25
2022-10-17T08:17:16.367Z,52.64
2022-10-17T08:19:43.011Z,53.06
2022-10-17T08:22:09.646Z,55.03
2022-10-17T08:24:36.249Z,56.01
2022-10-17T08:27:02.896Z,55.91
2022-10-17T08:29:32.774Z,56.34
2022-10-17T08:32:01.184Z,56.23
2022-10-17T08:34:29.053Z,56.44
2022-10-17T08:36:55.868Z,57.06
2022-10-17T08:39:22.762Z,58.04
2022-10-17T08:41:56.031Z,59.24
2022-10-17T08:44:25.732Z,59.28
2022-10-17T08:46:57.281Z,58.50
2022-10-17T08:49:32.518Z,58.89
2022-10-17T08:52:07.308Z,60.43
2022-10-17T08:54:47.224Z,60.66
2022-10-17T08:57:16.466Z,61.27
2022-10-17T08:59:45.471Z,61.39
2022-10-17T09:02:33.992Z,61.96
2022-10-17T09:05:16.156Z,60.72
2022-10-17T09:08:13.877Z,62.03
2022-10-17T09:11:18.886Z,61.40
2022-10-17T09:13:48.268Z,62.45
2022-10-17T09:16:30.711Z,62.61
2022-10-17T09:19:07.462Z,60.88
2022-10-17T09:21:47.112Z,60.80
2022-10-17T09:24:27.715Z,61.19
2022-10-17T09:26:55.612Z,61.38
2022-10-17T09:29:24.972Z,60.96
2022-10-17T09:32:02.327Z,60.99
2022-10-17T09:34:32.380Z,60.41
2022-10-17T09:37:01.518Z,60.56
2022-10-17T09:39:29.684Z,58.68
2022-10-17T09:42:01.648Z,58.48
2022-10-17T09:44:35.952Z,58.67
2022-10-17T09:47:11.587Z,58.66
2022-10-17T09:49:40.800Z,58.76
2022-10-17T09:52:21.390Z,59.81
2022-10-17T09:54:52.585Z,58.56
2022-10-17T09:57:21.868Z,58.98
2022-10-17T10:00:02.988Z,57.71
2022-10-17T10:02:31.295Z,59.23
2022-10-17T10:05:06.654Z,58.50
2022-10-17T10:07:37.454Z,59.77
2022-10-17T10:10:08.155Z,58.28
2022-10-17T10:12:38.772Z,58.10
2022-10-17T10:15:34.735Z,57.18
2022-10-17T10:18:02.135Z,56.61
2022-10-17T10:20:37.487Z,55.59
2022-10-17T10:23:08.123Z,54.81
2022-10-17T10:25:35.885Z,53.65
2022-10-17T10:28:10.879Z,54.81
2022-10-17T10:30:40.023Z,53.65
2022-10-17T10:33:12.137Z,54.27
2022-10-17T10:35:39.350Z,54.88
2022-10-17T10:38:18.028Z,54.94
2022-10-17T10:40:52.587Z,54.72
2022-10-17T10:43:42.265Z,54.71
2022-10-17T10:46:27.898Z,53.41
2022-10-17T10:48:57.857Z,53.81
2022-10-17T10:51:31.914Z,53.80
2022-10-17T10:54:09.788Z,53.74
2022-10-17T10:56:44.339Z,51.85
2022-10-17T10:59:36.939Z,52.89
2022-10-17T11:02:17.336Z,52.86
2022-10-17T11:04:51.907Z,52.99
2022-10-17T11:07:30.867Z,53.08
2022-10-17T11:10:16.886Z,52.70
2022-10-17T11:13:24.933Z,53.06
2022-10-17T11:15:57.996Z,52.84
2022-10-17T11:18:50.680Z,51.56
2022-10-17T11:21:45.317Z,51.58
2022-10-17T11:24:24.997Z,50.83
2022-10-17T11:26:59.789Z,51.62
2022-10-17T11:29:31.489Z,52.67
2022-10-17T11:32:05.540Z,52.02
2022-10-17T11:34:45.475Z,52.26
2022-10-17T11:37:25.523Z,51.05
2022-10-17T11:40:00.903Z,50.20
2022-10-17T11:42:30.484Z,50.62
2022-10-17T11:45:04.866Z,50.28
2022-10-17T11:47:51.468Z,49.47
2022-10-17T11:54:04.300Z,48.31
2022-10-17T11:57:09.153Z,48.40
2022-10-17T12:00:00.278Z,47.82
2022-10-17T12:02:39.173Z,47.21
2022-10-17T12:05:05.795Z,47.28
2022-10-17T12:08:01.523Z,46.06
2022-10-17T12:10:46.394Z,44.80
2022-10-17T12:13:27.868Z,45.85
2022-10-17T12:15:55.941Z,45.24
2022-10-17T12:18:27.012Z,46.90
2022-10-17T12:20:58.777Z,46.02
2022-10-17T12:23:30.635Z,45.13
2022-10-17T12:26:07.554Z,45.48
2022-10-17T12:28:47.948Z,46.84
2022-10-17T12:31:17.525Z,45.57
2022-10-17T12:33:53.999Z,45.77
2022-10-17T12:36:26.704Z,45.94
2022-10-17T12:39:02.411Z,45.76
2022-10-17T12:41:38.199Z,45.34
2022-10-17T12:44:14.134Z,46.13
2022-10-17T12:46:48.836Z,46.00
2022-10-17T12:49:37.611Z,46.45
2022-10-17T12:52:16.417Z,45.36
2022-10-17T12:55:13.810Z,46.26
2022-10-17T12:57:55.593Z,45.69
2022-10-17T13:00:31.528Z,45.23
2022-10-17T13:03:05.932Z,46.96
2022-10-17T13:05:40.186Z,46.18
2022-10-17T13:08:16.914Z,46.30
2022-10-17T13:10:51.565Z,46.21
2022-10-17T13:13:23.656Z,45.70
2022-10-17T13:15:54.181Z,45.83
2022-10-17T13:18:24.945Z,45.75
2022-10-17T13:21:00.943Z,46.50
2022-10-17T13:23:32.115Z,45.99
2022-10-17T13:26:17.951Z,45.24
2022-10-17T13:28:44.607Z,44.81
2022-10-17T13:31:44.442Z,46.13
2022-10-17T13:34:20.742Z,45.32
2022-10-17T13:36:51.915Z,44.67
2022-10-17T13:39:32.593Z,43.53
2022-10-17T13:42:29.356Z,41.56
2022-10-17T13:44:58.831Z,44.28
2022-10-17T13:47:34.146Z,42.45
2022-10-17T13:50:01.093Z,42.64
2022-10-17T13:52:30.296Z,43.93
2022-10-17T13:55:17.875Z,43.59
2022-10-17T13:57:47.443Z,42.00
2022-10-17T14:00:23.037Z,40.92
2022-10-17T14:02:49.823Z,43.61
2022-10-17T14:05:20.247Z,42.21
2022-10-17T14:08:21.890Z,41.54
2022-10-17T14:10:47.632Z,42.02
2022-10-17T14:13:34.674Z,39.54
2022-10-17T14:16:04.012Z,39.77
2022-10-17T14:18:36.597Z,39.35
2022-10-17T14:21:34.414Z,38.32
2022-10-17T14:24:13.856Z,42.72
2022-10-17T14:27:00.375Z,41.97
2022-10-17T14:29:31.136Z,40.87
2022-10-17T14:32:06.779Z,40.31
2022-10-17T14:34:37.168Z,40.37
2022-10-17T14:37:29.766Z,39.96
2022-10-17T14:40:00.741Z,39.73
2022-10-17T14:42:27.554Z,37.94
2022-10-17T14:45:05.399Z,39.20
2022-10-17T14:47:43.251Z,38.63
2022-10-17T14:50:10.398Z,40.22
2022-10-17T14:52:37.077Z,40.23
2022-10-17T14:55:24.763Z,39.08
2022-10-17T14:57:51.451Z,39.62
2022-10-17T15:00:20.432Z,40.68
2022-10-17T15:02:49.096Z,39.99
2022-10-17T15:05:16.513Z,38.25
2022-10-17T15:07:43.375Z,37.95
2022-10-17T15:10:36.116Z,39.52
2022-10-17T15:13:26.774Z,39.54
2022-10-17T15:15:52.339Z,38.89
2022-10-17T15:18:19.540Z,40.21
2022-10-17T15:20:46.404Z,39.24
2022-10-17T15:23:13.222Z,39.19
2022-10-17T15:25:39.983Z,39.75
2022-10-17T15:28:06.643Z,41.21
2022-10-17T15:30:36.396Z,41.70
2022-10-17T15:33:03.499Z,41.54
2022-10-17T15:35:31.060Z,41.50
2022-10-17T15:37:57.935Z,41.90
2022-10-17T15:40:30.374Z,41.55
2022-10-17T15:42:57.444Z,40.83
2022-10-17T15:45:24.102Z,41.59
2022-10-17T15:47:56.923Z,41.28
2022-10-17T15:50:23.626Z,42.52
2022-10-17T15:52:52.129Z,43.20
2022-10-17T15:55:19.673Z,43.22
2022-10-17T15:57:49.088Z,43.72
2022-10-17T16:00:19.492Z,44.65
2022-10-17T16:02:47.529Z,43.43
2022-10-17T16:05:18.293Z,43.01
2022-10-17T16:07:45.942Z,44.64
2022-10-17T16:10:14.710Z,45.17
2022-10-17T16:12:41.490Z,45.82
2022-10-17T16:15:14.731Z,46.65
2022-10-17T16:17:41.526Z,47.93
2022-10-17T16:20:10.474Z,45.62
2022-10-17T16:22:37.813Z,47.29
2022-10-17T16:25:05.920Z,48.04
2022-10-17T16:27:32.560Z,47.91
2022-10-17T16:29:59.205Z,47.60
2022-10-17T16:32:25.814Z,47.65
2022-10-17T16:34:52.458Z,48.14
2022-10-17T16:37:19.112Z,49.34
2022-10-17T16:39:45.780Z,48.73
2022-10-17T16:42:12.422Z,49.90
2022-10-17T16:44:38.985Z,50.13
2022-10-17T16:47:05.631Z,49.86
2022-10-17T16:49:32.260Z,49.35
2022-10-17T16:51:58.967Z,50.69
2022-10-17T16:54:25.649Z,51.33
2022-10-17T16:56:52.210Z,51.46
2022-10-17T16:59:18.837Z,51.01
2022-10-17T17:01:45.470Z,51.59
2022-10-17T17:04:12.218Z,53.14
2022-10-17T17:06:38.901Z,54.23
2022-10-17T17:09:05.578Z,54.46
2022-10-17T17:11:32.200Z,54.82
2022-10-17T17:13:59.696Z,54.82
2022-10-17T17:16:27.977Z,53.49
2022-10-17T17:19:15.282Z,53.00
2022-10-17T17:21:41.896Z,53.10
2022-10-17T17:24:08.477Z,55.35
2022-10-17T17:26:35.553Z,54.84
2022-10-17T17:29:02.797Z,56.34
2022-10-17T17:31:33.193Z,56.34
2022-10-17T17:34:00.025Z,56.52
2022-10-17T17:36:31.097Z,55.08
2022-10-17T17:39:00.000Z,54.92
2022-10-17T17:41:28.075Z,56.48
2022-10-17T17:43:55.489Z,55.01
2022-10-17T17:46:24.095Z,56.78
2022-10-17T17:48:52.849Z,55.97
2022-10-17T17:51:28.344Z,55.56
2022-10-17T17:53:56.688Z,57.33
2022-10-17T17:56:28.739Z,55.36
2022-10-17T17:58:59.035Z,56.80
2022-10-17T18:01:29.786Z,57.28
2022-10-17T18:03:57.916Z,57.31
2022-10-17T18:06:25.160Z,57.81
2022-10-17T18:08:56.844Z,58.44
2022-10-17T18:11:24.043Z,60.08
2022-10-17T18:13:55.656Z,59.73
2022-10-17T18:16:24.546Z,59.24
2022-10-17T18:18:51.206Z,57.38
2022-10-17T18:21:18.142Z,56.69
2022-10-17T18:23:46.805Z,56.88
2022-10-17T18:26:14.203Z,56.42
2022-10-17T18:34:05.002Z,57.35
2022-10-17T18:36:35.271Z,58.47
2022-10-17T18:39:02.865Z,58.83
2022-10-17T18:41:30.171Z,59.82
2022-10-17T18:43:57.652Z,58.24
2022-10-17T18:46:28.921Z,59.08
2022-10-17T18:48:57.606Z,59.38
2022-10-17T18:51:25.916Z,59.42
2022-10-17T18:53:55.292Z,59.30
2022-10-17T18:56:22.894Z,58.18
2022-10-17T18:58:49.661Z,60.67
2022-10-17T19:01:22.206Z,58.94
2022-10-17T19:03:52.154Z,57.84
2022-10-17T19:06:22.239Z,57.48
2022-10-17T19:08:49.542Z,57.26
2022-10-17T19:11:22.236Z,56.66
2022-10-17T19:13:50.133Z,57.15
2022-10-17T19:16:26.757Z,57.32
2022-10-17T19:19:01.191Z,59.43
2022-10-17T19:21:28.140Z,58.68
2022-10-17T19:24:00.610Z,57.72
2022-10-17T19:26:29.634Z,59.23
2022-10-17T19:28:56.838Z,58.19
2022-10-17T19:31:27.117Z,59.72
2022-10-17T19:33:55.317Z,59.18
2022-10-17T19:36:28.851Z,60.63
2022-10-17T19:38:59.527Z,61.41
2022-10-17T19:41:27.369Z,59.75
2022-10-17T19:43:53.987Z,63.27
2022-10-17T19:46:24.283Z,62.78
2022-10-17T19:48:52.075Z,64.52
2022-10-17T19:51:20.974Z,63.31
2022-10-17T19:53:48.379Z,62.13
2022-10-17T19:56:14.992Z,61.82
2022-10-17T19:58:41.597Z,61.08
2022-10-17T20:01:08.230Z,62.07
2022-10-17T20:03:36.038Z,62.86
2022-10-17T20:06:02.716Z,61.21
2022-10-17T20:08:29.303Z,60.25
2022-10-17T20:10:55.946Z,60.45
2022-10-17T20:13:22.537Z,61.64
2022-10-17T20:15:56.979Z,62.88
2022-10-17T20:18:24.939Z,62.49
2022-10-17T20:20:51.604Z,62.10
2022-10-17T20:23:18.424Z,61.07
2022-10-17T20:25:45.363Z,62.08
2022-10-17T20:28:12.037Z,62.89
2022-10-17T20:30:46.300Z,63.46
2022-10-17T20:33:12.945Z,62.70
2022-10-17T20:38:11.319Z,61.85
2022-10-17T20:40:39.147Z,61.39
2022-10-17T20:43:07.850Z,61.49
2022-10-17T20:45:50.757Z,62.31
2022-10-17T20:48:19.186Z,62.19
2022-10-17T20:50:45.766Z,62.24
2022-10-17T20:56:11.510Z,59.64
2022-10-17T20:58:38.149Z,60.16
2022-10-17T21:01:07.542Z,60.36
2022-10-17T21:03:42.531Z,59.82
2022-10-17T21:06:13.775Z,59.97
2022-10-17T21:08:40.530Z,59.36
2022-10-17T21:11:13.316Z,61.53
2022-10-17T21:13:40.695Z,62.31
2022-10-17T21:16:14.942Z,62.10
2022-10-17T21:18:42.519Z,62.92
2022-10-17T21:21:23.063Z,61.51
2022-10-17T21:23:51.175Z,60.97
2022-10-17T21:26:18.716Z,62.41
2022-10-17T21:28:47.699Z,63.40
2022-10-17T21:34:14.250Z,61.83
2022-10-17T21:39:31.396Z,59.76
2022-10-17T21:42:07.131Z,59.31
2022-10-17T21:44:33.955Z,60.73
2022-10-17T21:47:00.768Z,60.29
2022-10-17T21:49:27.489Z,60.04
2022-10-17T21:51:57.250Z,60.05
2022-10-17T21:54:23.906Z,60.56
2022-10-17T21:56:51.953Z,62.56
2022-10-17T21:59:18.728Z,61.49
2022-10-17T22:01:46.817Z,61.91
2022-10-17T22:04:17.188Z,62.57
2022-10-17T22:06:46.066Z,60.89
2022-10-17T22:09:22.170Z,60.50
2022-10-17T22:11:52.326Z,59.28
2022-10-17T22:14:20.921Z,60.11
2022-10-17T22:16:50.676Z,60.13
2022-10-17T22:19:20.673Z,58.77
2022-10-17T22:21:47.543Z,58.34
2022-10-17T22:24:16.447Z,58.95
2022-10-17T22:26:43.407Z,59.62
2022-10-17T22:29:10.417Z,62.24
2022-10-17T22:31:37.615Z,62.29
2022-10-17T22:34:05.794Z,62.22
2022-10-17T22:36:33.636Z,61.70
2022-10-17T22:39:00.593Z,61.27
2022-10-17T22:41:34.867Z,60.58
2022-10-17T22:44:02.155Z,59.37
2022-10-17T22:46:29.298Z,60.38
2022-10-17T22:48:55.929Z,59.01
2022-10-17T22:53:50.796Z,61.89
2022-10-17T22:56:19.818Z,59.70
2022-10-17T22:58:47.140Z,61.80
2022-10-17T23:01:19.476Z,62.85
2022-10-17T23:03:46.800Z,61.93
2022-10-17T23:06:14.193Z,61.74
2022-10-17T23:08:41.837Z,58.96
2022-10-17T23:11:09.788Z,57.97
2022-10-17T23:13:36.985Z,56.73
2022-10-17T23:16:03.761Z,56.63
2022-10-17T23:21:01.993Z,56.86
2022-10-17T23:23:28.567Z,57.74
2022-10-17T23:25:55.268Z,56.63
2022-10-17T23:28:22.002Z,56.56
2022-10-17T23:30:48.606Z,56.21
2022-10-17T23:33:15.486Z,56.42
2022-10-17T23:35:42.100Z,56.17
2022-10-17T23:38:08.880Z,56.75
2022-10-17T23:40:35.514Z,58.06
2022-10-17T23:43:03.078Z,58.25
2022-10-17T23:45:33.406Z,59.44
2022-10-17T23:48:02.867Z,57.67
2022-10-17T23:50:29.453Z,56.97
2022-10-17T23:52:56.036Z,57.06
2022-10-17T23:55:22.653Z,58.53
2022-10-17T23:57:49.241Z,57.73
